Time;durP1;ratioP1;P1;durP2;ratioP2;P2;SDS_P1;SDS_P2;PMS_P1;PMS_P2;Temp;Humidity;BMP_temperature;BMP_pressure;BME280_temperature;BME280_humidity;BME280_pressure;Samples;Min_cycle;Max_cycle;Signal;HPM_P1;HPM_P2
2024/02/04 00:02:24;;;;;;;;;;;;;;;15.83;41.70;101025.59;5016664;28;1088;-45
2024/02/04 00:04:50;;;;;;;;;;;;;;;15.57;42.03;101028.94;5016616;28;1059;-44
2024/02/04 00:07:16;;;;;;;;;;;;;;;15.91;41.64;101042.38;5029180;28;1126;-42
2024/02/04 00:09:43;;;;;;;;;;;;;;;17.32;38.37;101040.06;5016024;28;1099;-43
2024/02/04 00:12:09;;;;;;;;;;;;;;;16.96;39.20;101045.47;5016421;28;1115;-44
2024/02/04 00:14:35;;;;;;;;;;;;;;;16.19;40.58;101039.56;5016369;28;1274;-45
2024/02/04 00:17:00;;;;;;;;;;;;;;;15.79;41.71;101039.00;5029809;28;1087;-45
2024/02/04 00:19:26;;;;;;;;;;;;;;;15.49;42.50;101048.59;5015143;28;1910;-44
2024/02/04 00:21:52;;;;;;;;;;;;;;;16.87;39.55;101045.16;5014669;28;1259;-42
2024/02/04 00:24:19;;;;;;;;;;;;;;;17.58;37.82;101043.66;5016929;28;1064;-43
2024/02/04 00:26:44;;;;;;;;;;;;;;;16.46;40.26;101044.94;5016471;28;1145;-44
2024/02/04 00:29:10;;;;;;;;;;;;;;;16.01;41.29;101046.31;5028441;28;1047;-44
2024/02/04 00:31:35;;;;;;;;;;;;;;;15.67;41.85;101047.38;5014857;28;1074;-46
2024/02/04 00:34:01;;;;;;;;;;;;;;;16.16;40.87;101048.31;5016360;28;1155;-42
2024/02/04 00:36:26;;;;;;;;;;;;;;;17.48;38.10;101053.84;5016173;28;1044;-44
2024/02/04 00:38:52;;;;;;;;;;;;;;;16.62;39.69;101053.25;5029543;28;1913;-41
2024/02/04 00:41:17;;;;;;;;;;;;;;;16.01;41.20;101055.34;5016134;28;1122;-44
2024/02/04 00:43:43;;;;;;;;;;;;;;;15.68;41.96;101045.44;5026539;28;1532;-46
2024/02/04 00:46:10;;;;;;;;;;;;;;;16.69;39.81;101065.66;5022746;28;1059;-44
2024/02/04 00:48:36;;;;;;;;;;;;;;;17.62;37.79;101054.94;5015865;28;1257;-46
2024/02/04 00:51:01;;;;;;;;;;;;;;;16.47;39.93;101041.13;5015680;28;1122;-44
2024/02/04 00:53:33;;;;;;;;;;;;;;;15.98;41.19;101042.16;5034090;28;1128;-46
2024/02/04 00:56:00;;;;;;;;;;;;;;;15.72;41.90;101035.63;5021124;28;1325;-45
2024/02/04 00:58:25;;;;;;;;;;;;;;;16.06;41.00;101027.97;5028109;28;1906;-43
2024/02/04 01:00:51;;;;;;;;;;;;;;;17.46;38.17;101029.38;5014477;28;1305;-44
2024/02/04 01:03:16;;;;;;;;;;;;;;;16.87;39.25;101033.31;5016050;28;1151;-46
2024/02/04 01:05:42;;;;;;;;;;;;;;;16.15;40.82;101036.53;5028613;28;1056;-46
2024/02/04 01:08:08;;;;;;;;;;;;;;;15.72;41.95;101047.44;5034077;28;1279;-45
2024/02/04 01:10:33;;;;;;;;;;;;;;;15.57;42.15;101039.03;5033393;28;1206;-41
2024/02/04 01:12:59;;;;;;;;;;;;;;;16.81;39.74;101045.38;5021707;28;1332;-44
2024/02/04 01:15:25;;;;;;;;;;;;;;;17.74;37.66;101041.75;5021694;28;1435;-42
2024/02/04 01:17:52;;;;;;;;;;;;;;;16.61;39.91;101049.69;5014560;28;1910;-46
2024/02/04 01:20:18;;;;;;;;;;;;;;;16.05;40.92;101039.22;5015871;28;865;-44
2024/02/04 01:22:43;;;;;;;;;;;;;;;15.70;41.94;101038.63;5025344;28;1436;-43
2024/02/04 01:25:09;;;;;;;;;;;;;;;16.44;40.58;101036.16;5025845;28;1056;-42
2024/02/04 01:27:35;;;;;;;;;;;;;;;17.66;37.89;101036.81;5032121;28;1160;-44
2024/02/04 01:30:00;;;;;;;;;;;;;;;16.64;39.84;101040.09;5018071;28;1107;-46
2024/02/04 01:32:26;;;;;;;;;;;;;;;16.06;40.91;101038.94;5028014;28;893;-45
2024/02/04 01:34:52;;;;;;;;;;;;;;;15.70;41.96;101037.81;5019435;28;1068;-47
2024/02/04 01:37:18;;;;;;;;;;;;;;;15.73;41.78;101031.78;5039085;28;1179;-45
2024/02/04 01:39:43;;;;;;;;;;;;;;;17.26;38.49;101030.16;5023839;28;1985;-48
2024/02/04 01:42:09;;;;;;;;;;;;;;;17.00;38.96;101027.34;5018660;28;1016;-47
2024/02/04 01:44:35;;;;;;;;;;;;;;;16.19;40.79;101021.19;5018937;28;963;-44
2024/02/04 01:47:01;;;;;;;;;;;;;;;15.77;41.95;101021.13;5019326;28;1099;-44
2024/02/04 01:49:27;;;;;;;;;;;;;;;15.52;42.36;101022.56;5018591;28;1241;-46
2024/02/04 01:51:52;;;;;;;;;;;;;;;16.68;39.87;101006.34;5025109;28;1220;-43
2024/02/04 01:54:18;;;;;;;;;;;;;;;17.69;37.97;101011.50;5025568;28;1106;-45
2024/02/04 01:56:45;;;;;;;;;;;;;;;16.74;39.46;101013.50;5025192;28;1060;-43
2024/02/04 01:59:12;;;;;;;;;;;;;;;16.07;40.97;101004.94;5023557;28;1910;-41
2024/02/04 02:01:37;;;;;;;;;;;;;;;15.74;42.00;100997.81;5017327;28;1255;-44
2024/02/04 02:04:03;;;;;;;;;;;;;;;16.03;41.51;100989.25;5027785;28;1592;-44
2024/02/04 02:06:29;;;;;;;;;;;;;;;17.44;38.26;100984.81;5025794;28;1152;-42
2024/02/04 02:08:54;;;;;;;;;;;;;;;16.71;39.64;100981.09;5023369;28;898;-45
2024/02/04 02:11:36;;;;;;;;;;;;;;;16.08;40.98;100970.09;5017312;28;1057;-42
2024/02/04 02:14:02;;;;;;;;;;;;;;;15.69;41.88;100968.44;5030444;28;1044;-43
2024/02/04 02:16:29;;;;;;;;;;;;;;;15.50;42.44;100972.66;5018194;28;1198;-45
2024/02/04 02:18:57;;;;;;;;;;;;;;;16.98;39.11;100971.84;5019401;28;1972;-47
2024/02/04 02:21:41;;;;;;;;;;;;;;;17.38;38.41;100962.00;5020561;28;1297;-44
2024/02/04 02:24:06;;;;;;;;;;;;;;;16.26;40.66;100963.34;5023437;28;1546;-41
2024/02/04 02:26:32;;;;;;;;;;;;;;;15.89;41.59;100965.06;5038032;28;1218;-41
2024/02/04 02:28:57;;;;;;;;;;;;;;;15.62;42.27;100964.28;5030792;28;1223;-46
2024/02/04 02:31:23;;;;;;;;;;;;;;;16.95;39.54;100966.91;5029875;28;1233;-44
2024/02/04 02:33:49;;;;;;;;;;;;;;;17.53;38.13;100954.84;5035872;28;1639;-45
2024/02/04 02:36:17;;;;;;;;;;;;;;;16.40;40.18;100955.44;5024166;28;1154;-47
2024/02/04 02:38:45;;;;;;;;;;;;;;;16.01;41.22;100953.06;5029534;28;1902;-42
2024/02/04 02:41:11;;;;;;;;;;;;;;;15.70;41.97;100950.91;5018085;28;1115;-43
2024/02/04 02:43:36;;;;;;;;;;;;;;;15.91;41.68;100953.81;5016084;28;1085;-43
2024/02/04 02:46:02;;;;;;;;;;;;;;;17.39;38.54;100947.16;5016405;28;1135;-44
2024/02/04 02:48:28;;;;;;;;;;;;;;;17.09;38.80;100942.47;4999982;28;1144;-43
2024/02/04 02:50:54;;;;;;;;;;;;;;;16.29;40.49;100945.53;5013138;28;1076;-44
2024/02/04 02:53:20;;;;;;;;;;;;;;;15.92;41.69;100952.69;5031444;28;1135;-46
2024/02/04 02:55:46;;;;;;;;;;;;;;;15.58;42.17;100953.00;5017770;28;1123;-44
2024/02/04 02:58:12;;;;;;;;;;;;;;;16.64;40.14;100955.81;5035759;28;1910;-42
2024/02/04 03:00:38;;;;;;;;;;;;;;;17.62;38.10;100956.78;5024840;28;1129;-41
2024/02/04 03:03:04;;;;;;;;;;;;;;;16.53;40.08;100957.69;5016259;28;1345;-46
2024/02/04 03:05:29;;;;;;;;;;;;;;;16.02;41.43;100947.28;5028484;28;1267;-44
2024/02/04 03:07:55;;;;;;;;;;;;;;;15.72;41.82;100948.75;5018176;28;1122;-45
2024/02/04 03:10:20;;;;;;;;;;;;;;;16.79;39.68;100955.03;5029945;28;1211;-44
2024/02/04 03:12:46;;;;;;;;;;;;;;;17.53;38.15;100963.09;5023587;28;1130;-43
2024/02/04 03:15:11;;;;;;;;;;;;;;;16.51;40.14;100965.38;5024473;28;1091;-42
2024/02/04 03:17:37;;;;;;;;;;;;;;;16.01;41.14;100959.34;5034525;28;1176;-42
2024/02/04 03:20:03;;;;;;;;;;;;;;;15.69;41.83;100956.66;5028311;28;1987;-44
2024/02/04 03:22:29;;;;;;;;;;;;;;;16.55;40.17;100960.16;5034749;28;1557;-43
2024/02/04 03:24:54;;;;;;;;;;;;;;;17.53;38.22;100954.84;5034945;28;1110;-47
2024/02/04 03:27:21;;;;;;;;;;;;;;;16.49;40.34;100966.72;5032320;28;1137;-42
2024/02/04 03:29:47;;;;;;;;;;;;;;;16.06;41.32;100953.91;5028612;28;1323;-41
2024/02/04 03:32:13;;;;;;;;;;;;;;;15.73;41.80;100955.84;5027380;28;1206;-44
2024/02/04 03:34:39;;;;;;;;;;;;;;;16.43;40.79;100950.22;5016987;28;1115;-43
2024/02/04 03:37:06;;;;;;;;;;;;;;;17.64;38.20;100958.44;5022206;28;1024;-43
2024/02/04 03:39:31;;;;;;;;;;;;;;;16.60;39.99;100957.44;5022604;28;1992;-41
2024/02/04 03:41:57;;;;;;;;;;;;;;;16.11;41.30;100961.31;5017011;28;1196;-44
2024/02/04 03:44:23;;;;;;;;;;;;;;;15.80;41.98;100963.06;5024223;28;1248;-44
2024/02/04 03:46:49;;;;;;;;;;;;;;;15.70;42.23;100972.00;5016318;28;1143;-42
2024/02/04 03:49:14;;;;;;;;;;;;;;;17.26;38.77;100958.69;5016101;28;1124;-44
2024/02/04 03:51:40;;;;;;;;;;;;;;;16.86;39.37;100954.78;5029721;28;1040;-45
2024/02/04 03:54:05;;;;;;;;;;;;;;;16.20;40.95;100959.75;5015700;28;1532;-42
2024/02/04 03:56:31;;;;;;;;;;;;;;;15.82;41.88;100947.16;5021281;28;1135;-42
2024/02/04 03:58:56;;;;;;;;;;;;;;;15.64;42.30;100954.69;5024442;28;1910;-43
2024/02/04 04:01:22;;;;;;;;;;;;;;;17.16;39.08;100961.44;5029721;28;1138;-46
2024/02/04 04:03:47;;;;;;;;;;;;;;;17.48;38.09;100949.38;5016564;28;1128;-46
2024/02/04 04:06:13;;;;;;;;;;;;;;;16.46;40.22;100948.06;5029350;28;1067;-47
2024/02/04 04:08:38;;;;;;;;;;;;;;;16.03;41.46;100940.72;5027651;28;1071;-44
2024/02/04 04:11:04;;;;;;;;;;;;;;;15.70;41.95;100945.41;5022407;28;1086;-43
2024/02/04 04:13:30;;;;;;;;;;;;;;;15.56;42.54;100939.56;5036058;28;1110;-47
2024/02/04 04:15:55;;;;;;;;;;;;;;;17.15;38.97;100935.06;5022927;28;1138;-43
2024/02/04 04:18:21;;;;;;;;;;;;;;;17.50;38.13;100939.75;5026565;28;1914;-47
2024/02/04 04:20:46;;;;;;;;;;;;;;;16.41;40.37;100933.22;5017441;28;1055;-43
2024/02/04 04:23:12;;;;;;;;;;;;;;;15.99;41.39;100934.13;5016401;28;1986;-46
2024/02/04 04:25:37;;;;;;;;;;;;;;;15.70;41.94;100934.44;5030463;28;1844;-47
2024/02/04 04:28:03;;;;;;;;;;;;;;;15.67;42.13;100934.97;5018303;28;1894;-43
2024/02/04 04:30:28;;;;;;;;;;;;;;;17.24;38.75;100944.41;5016294;28;2221;-44
2024/02/04 04:32:54;;;;;;;;;;;;;;;17.12;39.01;100936.44;5028781;28;1138;-47
2024/02/04 04:35:20;;;;;;;;;;;;;;;16.18;41.12;100928.19;5026908;28;1056;-45
2024/02/04 04:37:45;;;;;;;;;;;;;;;15.87;41.75;100928.00;5018309;28;1141;-44
2024/02/04 04:40:11;;;;;;;;;;;;;;;15.97;41.33;100928.06;5015854;28;1969;-49
2024/02/04 04:42:36;;;;;;;;;;;;;;;17.40;38.74;100926.84;5029274;28;1189;-45
2024/02/04 04:45:02;;;;;;;;;;;;;;;16.97;39.27;100929.00;5016024;28;1035;-46
2024/02/04 04:47:27;;;;;;;;;;;;;;;16.18;41.17;100936.41;5019127;28;992;-46
2024/02/04 04:49:53;;;;;;;;;;;;;;;15.90;41.63;100939.25;5025807;28;1347;-44
2024/02/04 04:52:18;;;;;;;;;;;;;;;15.70;42.12;100939.94;5022049;28;1025;-49
2024/02/04 04:54:44;;;;;;;;;;;;;;;15.76;42.27;100937.22;5026210;28;1067;-47
2024/02/04 04:57:09;;;;;;;;;;;;;;;17.30;38.74;100948.00;5029916;28;1115;-44
2024/02/04 04:59:38;;;;;;;;;;;;;;;17.00;39.21;100950.44;5020985;28;1980;-53
2024/02/04 05:02:04;;;;;;;;;;;;;;;16.14;40.99;100941.59;5018854;28;1064;-47
2024/02/04 05:04:29;;;;;;;;;;;;;;;15.84;41.80;100936.78;5032199;28;1175;-44
2024/02/04 05:06:55;;;;;;;;;;;;;;;15.58;42.18;100939.28;5031503;28;1329;-43
2024/02/04 05:09:21;;;;;;;;;;;;;;;16.12;41.41;100949.28;5033892;28;869;-44
2024/02/04 05:11:46;;;;;;;;;;;;;;;17.43;38.71;100939.19;5025613;28;906;-46
2024/02/04 05:14:12;;;;;;;;;;;;;;;16.62;39.87;100941.53;5028899;28;901;-46
2024/02/04 05:16:37;;;;;;;;;;;;;;;16.07;41.14;100939.09;5030971;28;1044;-44
2024/02/04 05:19:03;;;;;;;;;;;;;;;17.67;38.09;100939.47;5024227;28;1902;-45
2024/02/04 05:21:28;;;;;;;;;;;;;;;17.01;39.06;100937.50;5030285;28;873;-48
2024/02/04 05:23:54;;;;;;;;;;;;;;;16.21;40.92;100944.09;5020407;28;1075;-47
2024/02/04 05:26:20;;;;;;;;;;;;;;;17.42;38.52;100941.13;5030861;28;1110;-48
2024/02/04 05:28:45;;;;;;;;;;;;;;;16.57;40.30;100938.75;5018742;28;1060;-45
2024/02/04 05:31:11;;;;;;;;;;;;;;;16.80;39.86;100929.19;5027289;28;1096;-45
2024/02/04 05:33:36;;;;;;;;;;;;;;;17.60;38.19;100927.94;5026285;28;1044;-47
2024/02/04 05:36:02;;;;;;;;;;;;;;;16.63;40.00;100932.19;5019450;28;1064;-46
2024/02/04 05:38:27;;;;;;;;;;;;;;;16.09;41.27;100930.59;5018836;28;1965;-50
2024/02/04 05:40:53;;;;;;;;;;;;;;;17.78;37.90;100915.50;5033937;28;1142;-45
2024/02/04 05:43:18;;;;;;;;;;;;;;;16.75;39.68;100921.78;5018949;28;1051;-48
2024/02/04 05:45:44;;;;;;;;;;;;;;;17.87;37.68;100922.09;5022788;28;912;-46
2024/02/04 05:48:10;;;;;;;;;;;;;;;18.12;37.06;100923.16;5033156;28;1075;-49
2024/02/04 05:50:35;;;;;;;;;;;;;;;17.02;39.06;100920.75;5030206;28;1043;-48
2024/02/04 05:53:01;;;;;;;;;;;;;;;16.57;40.41;100930.53;5018778;28;1095;-45
2024/02/04 05:55:26;;;;;;;;;;;;;;;17.78;37.72;100930.09;5019261;28;1067;-49
2024/02/04 05:57:52;;;;;;;;;;;;;;;16.74;39.98;100936.59;5018524;28;1227;-45
2024/02/04 06:00:17;;;;;;;;;;;;;;;18.24;37.15;100928.34;5027784;28;1992;-47
2024/02/04 06:02:43;;;;;;;;;;;;;;;17.43;38.30;100929.03;5022002;28;1067;-46
2024/02/04 06:05:09;;;;;;;;;;;;;;;16.73;39.95;100931.38;5018512;28;1393;-44
2024/02/04 06:07:34;;;;;;;;;;;;;;;16.46;40.57;100935.16;5020696;28;1126;-47
2024/02/04 06:10:03;;;;;;;;;;;;;;;17.88;38.04;100931.16;5028748;28;908;-43
2024/02/04 06:12:28;;;;;;;;;;;;;;;17.59;38.16;100918.84;5018278;28;1126;-45
2024/02/04 06:14:54;;;;;;;;;;;;;;;16.80;40.21;100928.38;5018442;28;1168;-49
2024/02/04 06:17:19;;;;;;;;;;;;;;;18.40;36.85;100918.91;5031331;28;1079;-49
2024/02/04 06:19:45;;;;;;;;;;;;;;;17.23;39.25;100924.34;5027601;28;1914;-45
2024/02/04 06:22:10;;;;;;;;;;;;;;;16.62;40.59;100932.44;5034146;28;1167;-47
2024/02/04 06:24:37;;;;;;;;;;;;;;;18.13;37.43;100947.66;5027760;28;1052;-44
2024/02/04 06:27:02;;;;;;;;;;;;;;;17.25;39.17;100946.03;5023391;28;1102;-45
2024/02/04 06:29:28;;;;;;;;;;;;;;;16.68;40.26;100950.59;5018688;28;989;-44
2024/02/04 06:31:53;;;;;;;;;;;;;;;16.36;41.13;100948.84;5030673;28;1131;-46
2024/02/04 06:34:19;;;;;;;;;;;;;;;17.58;38.67;100958.41;5018089;28;1024;-46
2024/02/04 06:36:45;;;;;;;;;;;;;;;17.52;38.49;100955.97;5030813;28;1032;-49
2024/02/04 06:39:10;;;;;;;;;;;;;;;16.73;40.42;100956.94;5028282;28;1982;-46
2024/02/04 06:41:36;;;;;;;;;;;;;;;16.65;40.57;100956.63;5020986;28;1058;-43
2024/02/04 06:44:04;;;;;;;;;;;;;;;17.92;37.87;100946.03;5018352;28;1159;-48
2024/02/04 06:46:30;;;;;;;;;;;;;;;16.80;40.00;100955.84;5017748;28;1076;-48
2024/02/04 06:48:55;;;;;;;;;;;;;;;16.36;41.21;100949.66;5018044;28;1492;-44
2024/02/04 06:51:21;;;;;;;;;;;;;;;17.56;38.47;100943.31;5030761;28;1548;-50
2024/02/04 06:53:47;;;;;;;;;;;;;;;16.54;40.63;100937.38;5024993;28;1067;-44
2024/02/04 06:56:12;;;;;;;;;;;;;;;16.30;41.33;100934.28;5027755;28;1200;-46
2024/02/04 06:58:38;;;;;;;;;;;;;;;18.01;37.70;100935.31;5024058;28;1906;-45
2024/02/04 07:01:04;;;;;;;;;;;;;;;16.73;40.36;100924.00;5027344;28;1174;-44
2024/02/04 07:03:30;;;;;;;;;;;;;;;16.36;41.26;100924.97;5022828;28;1079;-45
2024/02/04 07:05:55;;;;;;;;;;;;;;;17.72;38.30;100917.44;5025373;28;1117;-43
2024/02/04 07:08:21;;;;;;;;;;;;;;;16.71;40.47;100931.66;5023251;28;1086;-41
2024/02/04 07:10:46;;;;;;;;;;;;;;;17.63;38.49;100924.63;5022540;28;1044;-47
2024/02/04 07:13:12;;;;;;;;;;;;;;;17.23;39.36;100935.34;5017664;28;1074;-46
2024/02/04 07:15:38;;;;;;;;;;;;;;;16.77;40.20;100941.56;5030094;28;1119;-44
2024/02/04 07:18:03;;;;;;;;;;;;;;;18.32;36.96;100938.75;5023339;28;1918;-44
2024/02/04 07:20:29;;;;;;;;;;;;;;;17.07;39.67;100951.00;5024256;28;1170;-48
2024/02/04 07:22:54;;;;;;;;;;;;;;;16.52;40.86;100947.81;5017505;28;1167;-47
2024/02/04 07:25:20;;;;;;;;;;;;;;;16.37;40.97;100947.75;5021438;28;2149;-45
2024/02/04 07:27:45;;;;;;;;;;;;;;;16.96;39.87;100943.84;5030672;28;1887;-45
2024/02/04 07:30:11;;;;;;;;;;;;;;;17.38;38.83;100939.22;5025117;28;2025;-46
2024/02/04 07:32:37;;;;;;;;;;;;;;;16.52;40.85;100930.50;5025955;28;1096;-46
2024/02/04 07:35:02;;;;;;;;;;;;;;;16.27;41.37;100928.47;5020254;28;1128;-50
2024/02/04 07:37:28;;;;;;;;;;;;;;;18.09;37.91;100915.44;5016807;28;1160;-47
2024/02/04 07:39:53;;;;;;;;;;;;;;;17.74;38.09;100920.75;5016796;28;1906;-46
2024/02/04 07:42:19;;;;;;;;;;;;;;;16.87;40.12;100910.56;5016844;28;1051;-49
2024/02/04 07:44:44;;;;;;;;;;;;;;;16.60;40.91;100917.06;5029372;28;1556;-48
2024/02/04 07:47:11;;;;;;;;;;;;;;;18.03;37.86;100917.38;5020323;28;908;-50
2024/02/04 07:49:36;;;;;;;;;;;;;;;16.91;39.85;100930.09;5020150;28;1197;-49
2024/02/04 07:52:02;;;;;;;;;;;;;;;16.57;40.77;100934.09;5016843;28;1000;-50
2024/02/04 07:54:27;;;;;;;;;;;;;;;18.26;37.51;100937.97;5016593;28;1095;-48
2024/02/04 07:56:53;;;;;;;;;;;;;;;17.14;39.58;100938.91;5024823;28;1040;-49
2024/02/04 07:59:18;;;;;;;;;;;;;;;16.74;40.38;100947.59;5019589;28;1939;-46
2024/02/04 08:01:44;;;;;;;;;;;;;;;16.91;40.45;100947.41;5028599;28;1737;-48
2024/02/04 08:04:10;;;;;;;;;;;;;;;18.53;36.80;100952.44;5022786;28;1265;-46
2024/02/04 08:06:37;;;;;;;;;;;;;;;17.20;39.33;100954.31;5028022;28;1141;-49
2024/02/04 08:09:03;;;;;;;;;;;;;;;16.72;40.71;100959.97;5024901;28;1413;-47
2024/02/04 08:11:28;;;;;;;;;;;;;;;16.33;41.12;100960.34;5027124;28;861;-45
2024/02/04 08:13:54;;;;;;;;;;;;;;;17.90;38.41;100961.97;5017193;28;1589;-46
2024/02/04 08:16:20;;;;;;;;;;;;;;;17.22;39.52;100960.34;5035244;28;1405;-45
2024/02/04 08:18:46;;;;;;;;;;;;;;;16.62;40.74;100966.25;5020090;28;1909;-49
2024/02/04 08:21:11;;;;;;;;;;;;;;;16.45;41.12;100968.34;5024891;28;1124;-45
2024/02/04 08:23:37;;;;;;;;;;;;;;;18.16;37.43;100965.53;5031824;28;938;-47
2024/02/04 08:26:03;;;;;;;;;;;;;;;16.91;39.97;100958.41;5016305;28;1147;-46
2024/02/04 08:28:29;;;;;;;;;;;;;;;16.53;40.80;100965.09;5024820;28;1428;-49
2024/02/04 08:30:55;;;;;;;;;;;;;;;16.98;39.97;100958.09;5029790;28;2113;-45
2024/02/04 08:33:20;;;;;;;;;;;;;;;17.69;38.52;100951.00;5039671;28;1102;-47
2024/02/04 08:35:46;;;;;;;;;;;;;;;16.66;40.80;100945.38;5021825;28;960;-47
2024/02/04 08:38:11;;;;;;;;;;;;;;;18.37;37.24;100935.16;5019820;28;1906;-48
2024/02/04 08:40:37;;;;;;;;;;;;;;;17.47;39.13;100922.97;5028902;28;1142;-47
2024/02/04 08:43:02;;;;;;;;;;;;;;;16.90;40.19;100939.41;5037765;28;1095;-46
2024/02/04 08:45:28;;;;;;;;;;;;;;;16.55;40.91;100946.44;5028049;28;1110;-46
2024/02/04 08:47:53;;;;;;;;;;;;;;;18.26;37.46;100934.41;5034768;28;893;-46
2024/02/04 08:50:20;;;;;;;;;;;;;;;17.33;39.14;100941.94;5028087;28;1128;-48
2024/02/04 08:52:45;;;;;;;;;;;;;;;16.73;40.67;100928.63;5038139;28;1329;-49
2024/02/04 08:55:11;;;;;;;;;;;;;;;18.15;37.90;100919.03;5031127;28;960;-48
2024/02/04 08:57:36;;;;;;;;;;;;;;;17.64;38.82;100926.25;5033091;28;1305;-50
2024/02/04 09:00:02;;;;;;;;;;;;;;;16.90;40.23;100922.94;5023019;28;1906;-46
2024/02/04 09:02:27;;;;;;;;;;;;;;;16.54;41.12;100917.34;5031148;28;1501;-46
2024/02/04 09:04:53;;;;;;;;;;;;;;;16.40;41.35;100931.56;5026951;28;1043;-49
2024/02/04 09:07:19;;;;;;;;;;;;;;;18.08;37.89;100928.38;5025941;28;1143;-51
2024/02/04 09:09:45;;;;;;;;;;;;;;;16.91;40.24;100930.09;5031418;28;1009;-48
2024/02/04 09:12:10;;;;;;;;;;;;;;;16.46;41.32;100931.59;5019070;28;940;-50
2024/02/04 09:14:36;;;;;;;;;;;;;;;18.06;38.21;100925.09;5018722;28;1220;-47
2024/02/04 09:17:06;;;;;;;;;;;;;;;17.14;39.58;100919.66;5034152;28;997;-47
2024/02/04 09:19:31;;;;;;;;;;;;;;;17.26;39.58;100914.72;5020528;28;1914;-49
2024/02/04 09:21:57;;;;;;;;;;;;;;;18.34;37.31;100908.19;5030852;28;1092;-47
2024/02/04 09:24:22;;;;;;;;;;;;;;;17.10;39.79;100905.66;5020218;28;905;-47
2024/02/04 09:26:48;;;;;;;;;;;;;;;16.71;40.85;100897.88;5019516;28;1016;-44
2024/02/04 09:29:14;;;;;;;;;;;;;;;17.48;39.44;100892.47;5023181;28;2100;-44
2024/02/04 09:31:39;;;;;;;;;;;;;;;18.45;36.89;100888.59;5019231;28;1017;-46
2024/02/04 09:34:05;;;;;;;;;;;;;;;17.18;39.42;100891.38;5031954;28;1119;-46
2024/02/04 09:36:30;;;;;;;;;;;;;;;16.81;40.35;100897.91;5019363;28;1128;-46
2024/02/04 09:38:56;;;;;;;;;;;;;;;16.54;41.23;100898.13;5018759;28;1972;-46
2024/02/04 09:41:26;;;;;;;;;;;;;;;17.47;39.33;100892.72;5018039;28;1184;-48
2024/02/04 09:43:52;;;;;;;;;;;;;;;17.56;38.95;100889.16;5032165;28;1060;-46
2024/02/04 09:46:18;;;;;;;;;;;;;;;16.74;40.77;100886.34;5018859;28;1095;-49
2024/02/04 09:48:44;;;;;;;;;;;;;;;16.50;41.13;100891.53;5017621;28;1124;-50
2024/02/04 09:51:09;;;;;;;;;;;;;;;16.29;41.51;100882.41;5018644;28;1187;-46
2024/02/04 09:53:35;;;;;;;;;;;;;;;17.84;38.46;100877.78;5035956;28;1036;-47
2024/02/04 09:56:06;;;;;;;;;;;;;;;17.53;39.10;100869.63;5027933;28;1039;-47
2024/02/04 09:58:31;;;;;;;;;;;;;;;16.80;40.56;100865.22;5030239;28;1914;-52
2024/02/04 10:00:57;;;;;;;;;;;;;;;17.48;39.44;100859.47;5018502;28;2020;-48
2024/02/04 10:03:23;;;;;;;;;;;;;;;17.72;38.56;100856.94;5021845;28;1305;-48
2024/02/04 10:05:48;;;;;;;;;;;;;;;16.88;40.56;100864.69;5022616;28;910;-51
2024/02/04 10:08:14;;;;;;;;;;;;;;;16.50;41.23;100853.91;5020892;28;1285;-51
2024/02/04 10:10:39;;;;;;;;;;;;;;;17.88;38.69;100848.63;5026066;28;1447;-47
2024/02/04 10:13:08;;;;;;;;;;;;;;;17.05;40.15;100846.03;5031325;28;1166;-47
2024/02/04 10:15:34;;;;;;;;;;;;;;;16.60;40.85;100844.88;5037963;28;1329;-51
2024/02/04 10:18:01;;;;;;;;;;;;;;;16.25;41.36;100840.94;5037641;28;1433;-53
2024/02/04 10:20:27;;;;;;;;;;;;;;;17.67;39.21;100851.47;5023266;28;1910;-51
2024/02/04 10:22:52;;;;;;;;;;;;;;;17.64;38.70;100849.25;5031302;28;1345;-49
2024/02/04 10:25:19;;;;;;;;;;;;;;;16.62;40.91;100850.94;5037869;28;1087;-51
2024/02/04 10:27:46;;;;;;;;;;;;;;;16.64;41.20;100845.16;5037624;28;1277;-48
2024/02/04 10:30:12;;;;;;;;;;;;;;;18.12;38.04;100826.84;5029085;28;1925;-47
2024/02/04 10:32:37;;;;;;;;;;;;;;;16.93;40.57;100843.56;5050705;28;1313;-46
2024/02/04 10:35:03;;;;;;;;;;;;;;;17.32;39.97;100831.19;5028602;28;1139;-46
2024/02/04 10:37:28;;;;;;;;;;;;;;;17.49;39.31;100832.78;5022927;28;1309;-47
2024/02/04 10:39:54;;;;;;;;;;;;;;;16.71;41.08;100842.97;5026302;28;1914;-48
2024/02/04 10:42:21;;;;;;;;;;;;;;;16.38;41.39;100826.72;5035981;28;1012;-49
2024/02/04 10:44:47;;;;;;;;;;;;;;;17.39;39.62;100837.22;5017792;28;1092;-48
2024/02/04 10:47:14;;;;;;;;;;;;;;;17.41;39.50;100818.50;5021916;28;1289;-48
2024/02/04 10:49:40;;;;;;;;;;;;;;;16.65;41.24;100827.56;5031014;28;1292;-50
2024/02/04 10:52:08;;;;;;;;;;;;;;;16.31;41.43;100826.13;5019956;28;1122;-47
2024/02/04 10:54:34;;;;;;;;;;;;;;;17.94;38.47;100828.28;5021223;28;937;-48
2024/02/04 10:57:02;;;;;;;;;;;;;;;17.15;39.81;100823.22;5017620;28;1048;-48
2024/02/04 10:59:29;;;;;;;;;;;;;;;16.61;41.08;100827.31;5022045;28;2076;-52
2024/02/04 11:01:55;;;;;;;;;;;;;;;16.32;41.69;100814.06;5028339;28;1088;-49
2024/02/04 11:04:20;;;;;;;;;;;;;;;18.03;38.25;100804.56;5016140;28;1136;-50
2024/02/04 11:06:46;;;;;;;;;;;;;;;16.92;40.59;100817.19;5026370;28;1285;-47
2024/02/04 11:09:11;;;;;;;;;;;;;;;16.50;41.17;100814.66;5035108;28;1183;-49
2024/02/04 11:11:37;;;;;;;;;;;;;;;17.43;39.51;100801.75;5019926;28;1123;-47
2024/02/04 11:14:03;;;;;;;;;;;;;;;17.39;39.42;100793.25;5020591;28;1406;-48
2024/02/04 11:16:39;;;;;;;;;;;;;;;16.58;41.30;100795.75;5019883;28;1125;-48
2024/02/04 11:19:04;;;;;;;;;;;;;;;16.28;41.74;100807.47;5026826;28;1909;-51
2024/02/04 11:21:44;;;;;;;;;;;;;;;17.43;39.69;100807.22;5021099;28;928;-47
2024/02/04 11:24:19;;;;;;;;;;;;;;;17.13;40.19;100810.88;5028586;28;1093;-50
2024/02/04 11:26:44;;;;;;;;;;;;;;;16.52;41.20;100801.47;5025869;28;1309;-47
2024/02/04 11:29:10;;;;;;;;;;;;;;;17.24;39.92;100802.34;5020179;28;1333;-49
2024/02/04 11:31:38;;;;;;;;;;;;;;;17.19;40.00;100801.53;5016833;28;1070;-51
2024/02/04 11:34:04;;;;;;;;;;;;;;;16.47;41.33;100815.22;5030087;28;1100;-48
2024/02/04 11:36:29;;;;;;;;;;;;;;;17.33;39.83;100810.84;5023664;28;1262;-49
2024/02/04 11:38:55;;;;;;;;;;;;;;;17.04;40.16;100805.09;5022772;28;1898;-51
2024/02/04 11:41:24;;;;;;;;;;;;;;;16.44;41.49;100811.09;5025653;28;1060;-48
2024/02/04 11:43:51;;;;;;;;;;;;;;;17.95;38.63;100817.00;5028204;28;1255;-50
2024/02/04 11:46:20;;;;;;;;;;;;;;;17.31;39.81;100810.28;5025548;28;1279;-49
2024/02/04 11:48:51;;;;;;;;;;;;;;;16.69;41.13;100823.19;5033956;28;1071;-46
2024/02/04 11:51:16;;;;;;;;;;;;;;;17.04;40.21;100819.69;5018935;28;1395;-46
2024/02/04 11:53:42;;;;;;;;;;;;;;;18.22;37.80;100810.25;5036304;28;1423;-49
2024/02/04 11:56:08;;;;;;;;;;;;;;;17.00;40.47;100815.00;5036360;28;1297;-50
2024/02/04 11:58:35;;;;;;;;;;;;;;;16.60;41.38;100820.16;5036168;28;1902;-49
2024/02/04 12:01:00;;;;;;;;;;;;;;;17.93;38.75;100818.38;5035495;28;2542;-50
2024/02/04 12:03:30;;;;;;;;;;;;;;;17.56;39.16;100828.66;5035902;28;1352;-47
2024/02/04 12:05:55;;;;;;;;;;;;;;;16.81;40.80;100822.94;5021254;28;1269;-48
2024/02/04 12:08:22;;;;;;;;;;;;;;;16.45;41.37;100825.63;5035953;28;1332;-50
2024/02/04 12:10:48;;;;;;;;;;;;;;;18.07;38.32;100819.41;5021101;28;1297;-51
2024/02/04 12:13:13;;;;;;;;;;;;;;;17.03;40.45;100818.03;5027148;28;1024;-48
2024/02/04 12:15:39;;;;;;;;;;;;;;;16.67;41.35;100820.72;5035535;28;1332;-50
2024/02/04 12:18:05;;;;;;;;;;;;;;;17.62;39.23;100815.72;5035587;28;1293;-46
2024/02/04 12:20:30;;;;;;;;;;;;;;;16.76;41.04;100807.28;5035621;28;1913;-49
2024/02/04 12:22:56;;;;;;;;;;;;;;;16.52;41.62;100802.31;5023990;28;1383;-47
2024/02/04 12:25:21;;;;;;;;;;;;;;;16.55;41.40;100796.28;5016231;28;1494;-47
2024/02/04 12:27:48;;;;;;;;;;;;;;;18.30;37.81;100795.91;5025411;28;1281;-47
2024/02/04 12:30:14;;;;;;;;;;;;;;;17.13;40.11;100783.41;5029357;28;2704;-50
2024/02/04 12:32:39;;;;;;;;;;;;;;;16.51;41.42;100786.09;5025021;28;1504;-49
2024/02/04 12:35:06;;;;;;;;;;;;;;;17.24;40.19;100785.84;5031917;28;1305;-50
2024/02/04 12:37:33;;;;;;;;;;;;;;;17.31;40.03;100774.56;5032034;28;1076;-49
2024/02/04 12:39:59;;;;;;;;;;;;;;;16.67;41.05;100775.97;5017958;28;1992;-46
2024/02/04 12:42:25;;;;;;;;;;;;;;;17.31;40.26;100766.31;5031182;28;1091;-50